sensor_id;sensor_type;location;lat;lon;timestamp;pressure;altitude;pressure_sealevel;temperature;humidity
9746;BME280;4912;50.836;12.958;2023-02-21T00:02:12;97844.16;;;10.84;75.12
9746;BME280;4912;50.836;12.958;2023-02-21T00:04:58;97854.91;;;10.91;75.36
9746;BME280;4912;50.836;12.958;2023-02-21T00:07:40;97857.97;;;10.93;74.95
9746;BME280;4912;50.836;12.958;2023-02-21T00:10:23;97865.56;;;10.84;75.10
9746;BME280;4912;50.836;12.958;2023-02-21T00:13:06;97863.53;;;10.84;75.50
9746;BME280;4912;50.836;12.958;2023-02-21T00:15:49;97874.91;;;10.86;75.50
9746;BME280;4912;50.836;12.958;2023-02-21T00:18:33;97860.38;;;10.77;75.97
9746;BME280;4912;50.836;12.958;2023-02-21T00:21:19;97848.53;;;10.67;76.23
9746;BME280;4912;50.836;12.958;2023-02-21T00:24:01;97860.72;;;10.60;77.28
9746;BME280;4912;50.836;12.958;2023-02-21T00:26:44;97860.44;;;10.49;78.19
9746;BME280;4912;50.836;12.958;2023-02-21T00:29:27;97854.28;;;10.54;78.62
9746;BME280;4912;50.836;12.958;2023-02-21T00:32:10;97852.78;;;10.53;78.86
9746;BME280;4912;50.836;12.958;2023-02-21T00:34:52;97852.72;;;10.62;79.13
9746;BME280;4912;50.836;12.958;2023-02-21T00:37:37;97853.25;;;10.43;80.03
9746;BME280;4912;50.836;12.958;2023-02-21T00:40:20;97843.44;;;10.42;80.72
9746;BME280;4912;50.836;12.958;2023-02-21T00:43:03;97849.59;;;10.37;81.48
9746;BME280;4912;50.836;12.958;2023-02-21T00:45:46;97838.41;;;10.22;82.46
9746;BME280;4912;50.836;12.958;2023-02-21T00:48:29;97829.97;;;10.16;82.83
9746;BME280;4912;50.836;12.958;2023-02-21T00:51:12;97830.25;;;10.09;83.02
9746;BME280;4912;50.836;12.958;2023-02-21T00:53:57;97825.03;;;10.02;83.21
9746;BME280;4912;50.836;12.958;2023-02-21T00:56:40;97830.25;;;10.09;83.10
9746;BME280;4912;50.836;12.958;2023-02-21T00:59:23;97843.47;;;9.96;82.94
9746;BME280;4912;50.836;12.958;2023-02-21T01:02:06;97842.88;;;9.92;83.37
9746;BME280;4912;50.836;12.958;2023-02-21T01:04:50;97821.09;;;9.94;83.40
9746;BME280;4912;50.836;12.958;2023-02-21T01:07:33;97814.31;;;10.04;83.04
9746;BME280;4912;50.836;12.958;2023-02-21T01:10:18;97807.38;;;10.09;82.51
9746;BME280;4912;50.836;12.958;2023-02-21T01:13:01;97810.81;;;9.95;83.01
9746;BME280;4912;50.836;12.958;2023-02-21T01:15:44;97821.84;;;9.95;83.36
9746;BME280;4912;50.836;12.958;2023-02-21T01:18:27;97820.28;;;10.03;83.03
9746;BME280;4912;50.836;12.958;2023-02-21T01:21:11;97808.47;;;10.02;82.79
9746;BME280;4912;50.836;12.958;2023-02-21T01:23:54;97814.00;;;10.02;82.83
9746;BME280;4912;50.836;12.958;2023-02-21T01:26:39;97808.47;;;10.02;82.81
9746;BME280;4912;50.836;12.958;2023-02-21T01:29:23;97818.59;;;10.05;82.54
9746;BME280;4912;50.836;12.958;2023-02-21T01:32:05;97820.75;;;10.10;82.27
9746;BME280;4912;50.836;12.958;2023-02-21T01:34:48;97810.59;;;10.07;82.45
9746;BME280;4912;50.836;12.958;2023-02-21T01:37:31;97820.28;;;10.12;82.22
9746;BME280;4912;50.836;12.958;2023-02-21T01:40:16;97811.38;;;10.17;81.77
9746;BME280;4912;50.836;12.958;2023-02-21T01:43:01;97825.31;;;10.13;81.86
9746;BME280;4912;50.836;12.958;2023-02-21T01:45:48;97814.44;;;10.10;82.29
9746;BME280;4912;50.836;12.958;2023-02-21T01:48:32;97816.28;;;10.13;82.39
9746;BME280;4912;50.836;12.958;2023-02-21T01:51:18;97812.44;;;10.19;81.76
9746;BME280;4912;50.836;12.958;2023-02-21T01:54:03;97804.78;;;10.23;81.66
9746;BME280;4912;50.836;12.958;2023-02-21T01:56:48;97802.16;;;10.20;81.67
9746;BME280;4912;50.836;12.958;2023-02-21T01:59:33;97798.94;;;10.21;81.97
9746;BME280;4912;50.836;12.958;2023-02-21T02:02:21;97808.25;;;10.33;81.44
9746;BME280;4912;50.836;12.958;2023-02-21T02:05:10;97810.31;;;10.23;81.64
9746;BME280;4912;50.836;12.958;2023-02-21T02:07:55;97801.97;;;10.14;82.72
9746;BME280;4912;50.836;12.958;2023-02-21T02:10:39;97802.47;;;10.13;83.13
9746;BME280;4912;50.836;12.958;2023-02-21T02:13:42;97801.09;;;10.17;83.29
9746;BME280;4912;50.836;12.958;2023-02-21T02:16:28;97799.88;;;10.18;83.06
9746;BME280;4912;50.836;12.958;2023-02-21T02:25:54;97791.53;;;10.27;82.59
9746;BME280;4912;50.836;12.958;2023-02-21T02:28:48;97798.28;;;10.36;82.17
9746;BME280;4912;50.836;12.958;2023-02-21T02:31:51;97792.13;;;10.32;82.47
9746;BME280;4912;50.836;12.958;2023-02-21T02:34:57;97788.75;;;10.37;81.96
9746;BME280;4912;50.836;12.958;2023-02-21T02:37:34;97786.59;;;10.32;82.24
9746;BME280;4912;50.836;12.958;2023-02-21T02:40:15;97791.53;;;10.27;82.64
9746;BME280;4912;50.836;12.958;2023-02-21T02:42:59;97793.06;;;10.29;82.62
9746;BME280;4912;50.836;12.958;2023-02-21T02:45:36;97791.06;;;10.29;82.57
9746;BME280;4912;50.836;12.958;2023-02-21T02:48:15;97789.22;;;10.35;82.33
9746;BME280;4912;50.836;12.958;2023-02-21T02:50:52;97785.94;;;10.46;82.05
9746;BME280;4912;50.836;12.958;2023-02-21T02:53:26;97782.41;;;10.45;81.75
9746;BME280;4912;50.836;12.958;2023-02-21T02:56:00;97774.91;;;10.37;82.00
9746;BME280;4912;50.836;12.958;2023-02-21T02:58:37;97771.53;;;10.42;82.10
9746;BME280;4912;50.836;12.958;2023-02-21T03:01:25;97766.13;;;10.47;81.96
9746;BME280;4912;50.836;12.958;2023-02-21T03:04:17;97770.09;;;10.46;81.69
9746;BME280;4912;50.836;12.958;2023-02-21T03:07:05;97759.19;;;10.43;82.01
9746;BME280;4912;50.836;12.958;2023-02-21T03:09:43;97763.03;;;10.45;82.32
9746;BME280;4912;50.836;12.958;2023-02-21T03:12:26;97751.06;;;10.48;82.03
9746;BME280;4912;50.836;12.958;2023-02-21T03:15:06;97755.44;;;10.55;81.87
9746;BME280;4912;50.836;12.958;2023-02-21T03:17:42;97754.88;;;10.51;81.84
9746;BME280;4912;50.836;12.958;2023-02-21T03:20:16;97752.09;;;10.51;82.04
9746;BME280;4912;50.836;12.958;2023-02-21T03:22:51;97745.34;;;10.52;82.08
9746;BME280;4912;50.836;12.958;2023-02-21T03:25:23;97748.28;;;10.48;82.37
9746;BME280;4912;50.836;12.958;2023-02-21T03:27:58;97740.28;;;10.50;82.49
9746;BME280;4912;50.836;12.958;2023-02-21T03:30:37;97742.50;;;10.61;82.06
9746;BME280;4912;50.836;12.958;2023-02-21T03:33:10;97751.00;;;10.57;82.06
9746;BME280;4912;50.836;12.958;2023-02-21T03:35:41;97736.97;;;10.61;81.85
9746;BME280;4912;50.836;12.958;2023-02-21T03:38:15;97749.31;;;10.60;82.05
9746;BME280;4912;50.836;12.958;2023-02-21T03:40:45;97760.84;;;10.58;82.17
9746;BME280;4912;50.836;12.958;2023-02-21T03:43:17;97759.13;;;10.61;82.13
9746;BME280;4912;50.836;12.958;2023-02-21T03:45:51;97769.84;;;10.68;82.26
9746;BME280;4912;50.836;12.958;2023-02-21T03:48:22;97771.38;;;10.69;81.77
9746;BME280;4912;50.836;12.958;2023-02-21T03:51:11;97768.66;;;10.60;82.52
9746;BME280;4912;50.836;12.958;2023-02-21T03:53:44;97771.13;;;10.58;82.89
9746;BME280;4912;50.836;12.958;2023-02-21T03:56:18;97762.84;;;10.49;83.35
9746;BME280;4912;50.836;12.958;2023-02-21T03:59:16;97764.25;;;10.53;83.71
9746;BME280;4912;50.836;12.958;2023-02-21T04:01:46;97765.28;;;10.56;83.34
9746;BME280;4912;50.836;12.958;2023-02-21T04:04:18;97751.19;;;10.54;83.84
9746;BME280;4912;50.836;12.958;2023-02-21T04:06:56;97752.09;;;10.51;83.92
9746;BME280;4912;50.836;12.958;2023-02-21T04:09:30;97757.97;;;10.44;84.55
9746;BME280;4912;50.836;12.958;2023-02-21T04:12:00;97762.69;;;10.52;84.48
9746;BME280;4912;50.836;12.958;2023-02-21T04:14:32;97760.31;;;10.69;83.80
9746;BME280;4912;50.836;12.958;2023-02-21T04:17:03;97748.94;;;10.67;83.60
9746;BME280;4912;50.836;12.958;2023-02-21T04:19:33;97742.81;;;10.63;83.63
9746;BME280;4912;50.836;12.958;2023-02-21T04:22:05;97746.34;;;10.63;83.86
9746;BME280;4912;50.836;12.958;2023-02-21T04:24:38;97758.19;;;10.64;83.86
9746;BME280;4912;50.836;12.958;2023-02-21T04:27:09;97748.16;;;10.66;83.88
9746;BME280;4912;50.836;12.958;2023-02-21T04:29:43;97756.75;;;10.78;83.55
9746;BME280;4912;50.836;12.958;2023-02-21T04:32:14;97752.00;;;10.93;82.73
9746;BME280;4912;50.836;12.958;2023-02-21T04:34:45;97761.56;;;10.92;82.35
9746;BME280;4912;50.836;12.958;2023-02-21T04:37:16;97754.66;;;10.87;82.70
9746;BME280;4912;50.836;12.958;2023-02-21T04:39:49;97758.00;;;10.91;82.64
9746;BME280;4912;50.836;12.958;2023-02-21T04:42:19;97761.44;;;10.86;83.11
9746;BME280;4912;50.836;12.958;2023-02-21T04:44:49;97756.78;;;10.92;83.11
9746;BME280;4912;50.836;12.958;2023-02-21T04:47:27;97761.09;;;10.93;83.13
9746;BME280;4912;50.836;12.958;2023-02-21T04:49:57;97759.84;;;10.94;83.34
9746;BME280;4912;50.836;12.958;2023-02-21T04:52:28;97750.31;;;10.95;83.69
9746;BME280;4912;50.836;12.958;2023-02-21T04:55:01;97754.09;;;10.83;84.55
9746;BME280;4912;50.836;12.958;2023-02-21T04:57:31;97744.53;;;10.84;84.86
9746;BME280;4912;50.836;12.958;2023-02-21T05:00:03;97741.63;;;11.02;84.57
9746;BME280;4912;50.836;12.958;2023-02-21T05:02:34;97739.63;;;11.03;84.14
9746;BME280;4912;50.836;12.958;2023-02-21T05:05:05;97748.28;;;10.96;84.28
9746;BME280;4912;50.836;12.958;2023-02-21T05:07:36;97739.47;;;10.83;84.71
9746;BME280;4912;50.836;12.958;2023-02-21T05:10:09;97740.38;;;10.89;85.18
9746;BME280;4912;50.836;12.958;2023-02-21T05:12:40;97740.63;;;10.91;84.30
9746;BME280;4912;50.836;12.958;2023-02-21T05:15:12;97738.94;;;10.93;84.46
9746;BME280;4912;50.836;12.958;2023-02-21T05:17:43;97733.28;;;10.88;84.31
9746;BME280;4912;50.836;12.958;2023-02-21T05:20:13;97739.63;;;10.79;84.74
9746;BME280;4912;50.836;12.958;2023-02-21T05:22:44;97736.09;;;10.79;85.52
9746;BME280;4912;50.836;12.958;2023-02-21T05:25:18;97731.22;;;10.74;85.54
9746;BME280;4912;50.836;12.958;2023-02-21T05:27:51;97733.88;;;10.68;85.81
9746;BME280;4912;50.836;12.958;2023-02-21T05:30:22;97714.06;;;10.60;86.46
9746;BME280;4912;50.836;12.958;2023-02-21T05:32:53;97719.34;;;10.58;86.62
9746;BME280;4912;50.836;12.958;2023-02-21T05:35:23;97722.22;;;10.64;86.47
9746;BME280;4912;50.836;12.958;2023-02-21T05:37:54;97712.06;;;10.61;86.67
9746;BME280;4912;50.836;12.958;2023-02-21T05:40:27;97714.84;;;10.61;86.86
9746;BME280;4912;50.836;12.958;2023-02-21T05:42:57;97715.44;;;10.65;86.82
9746;BME280;4912;50.836;12.958;2023-02-21T05:45:28;97712.84;;;10.61;86.63
9746;BME280;4912;50.836;12.958;2023-02-21T05:47:59;97713.94;;;10.55;87.22
9746;BME280;4912;50.836;12.958;2023-02-21T05:50:29;97719.69;;;10.51;87.44
9746;BME280;4912;50.836;12.958;2023-02-21T05:53:00;97731.03;;;10.53;87.52
9746;BME280;4912;50.836;12.958;2023-02-21T05:55:33;97728.22;;;10.62;86.93
9746;BME280;4912;50.836;12.958;2023-02-21T05:58:04;97731.41;;;10.70;86.39
9746;BME280;4912;50.836;12.958;2023-02-21T06:00:34;97735.88;;;10.67;85.82
9746;BME280;4912;50.836;12.958;2023-02-21T06:03:04;97726.53;;;10.65;86.44
9746;BME280;4912;50.836;12.958;2023-02-21T06:05:35;97733.59;;;10.66;86.23
9746;BME280;4912;50.836;12.958;2023-02-21T06:08:06;97741.25;;;10.71;85.63
9746;BME280;4912;50.836;12.958;2023-02-21T06:10:42;97730.63;;;10.70;85.46
9746;BME280;4912;50.836;12.958;2023-02-21T06:13:14;97746.59;;;10.75;85.31
9746;BME280;4912;50.836;12.958;2023-02-21T06:15:45;97744.91;;;10.77;85.10
9746;BME280;4912;50.836;12.958;2023-02-21T06:18:15;97737.59;;;10.89;85.35
9746;BME280;4912;50.836;12.958;2023-02-21T06:20:46;97748.81;;;10.85;85.17
9746;BME280;4912;50.836;12.958;2023-02-21T06:23:16;97752.78;;;10.93;83.62
9746;BME280;4912;50.836;12.958;2023-02-21T06:25:49;97759.84;;;10.94;84.15
9746;BME280;4912;50.836;12.958;2023-02-21T06:28:20;97771.03;;;11.00;83.48
9746;BME280;4912;50.836;12.958;2023-02-21T06:30:50;97772.03;;;11.12;83.27
9746;BME280;4912;50.836;12.958;2023-02-21T06:33:21;97786.94;;;11.14;82.30
9746;BME280;4912;50.836;12.958;2023-02-21T06:35:52;97783.22;;;11.17;82.28
9746;BME280;4912;50.836;12.958;2023-02-21T06:38:22;97785.69;;;11.15;82.03
9746;BME280;4912;50.836;12.958;2023-02-21T06:40:55;97787.66;;;11.24;82.07
9746;BME280;4912;50.836;12.958;2023-02-21T06:43:29;97785.81;;;11.21;82.11
9746;BME280;4912;50.836;12.958;2023-02-21T06:45:59;97799.38;;;11.19;82.22
9746;BME280;4912;50.836;12.958;2023-02-21T06:48:30;97797.34;;;11.19;82.29
9746;BME280;4912;50.836;12.958;2023-02-21T06:51:01;97796.19;;;11.11;82.87
9746;BME280;4912;50.836;12.958;2023-02-21T06:53:32;97808.31;;;11.14;82.80
9746;BME280;4912;50.836;12.958;2023-02-21T06:56:06;97811.38;;;11.16;82.66
9746;BME280;4912;50.836;12.958;2023-02-21T06:58:36;97817.81;;;11.22;82.31
9746;BME280;4912;50.836;12.958;2023-02-21T07:01:07;97818.13;;;11.24;82.40
9746;BME280;4912;50.836;12.958;2023-02-21T07:03:38;97827.19;;;11.24;82.16
9746;BME280;4912;50.836;12.958;2023-02-21T07:06:10;97823.34;;;11.22;82.41
9746;BME280;4912;50.836;12.958;2023-02-21T07:08:40;97828.88;;;11.22;82.48
9746;BME280;4912;50.836;12.958;2023-02-21T07:11:15;97834.44;;;11.22;82.33
9746;BME280;4912;50.836;12.958;2023-02-21T07:13:48;97826.47;;;11.15;82.82
9746;BME280;4912;50.836;12.958;2023-02-21T07:16:19;97840.31;;;11.15;83.05
9746;BME280;4912;50.836;12.958;2023-02-21T07:18:50;97838.88;;;11.19;83.04
9746;BME280;4912;50.836;12.958;2023-02-21T07:21:20;97840.03;;;11.13;83.09
9746;BME280;4912;50.836;12.958;2023-02-21T07:23:51;97856.47;;;11.16;83.42
9746;BME280;4912;50.836;12.958;2023-02-21T07:26:24;97851.38;;;11.15;83.64
9746;BME280;4912;50.836;12.958;2023-02-21T07:28:54;97856.94;;;11.15;83.52
9746;BME280;4912;50.836;12.958;2023-02-21T07:31:25;97860.19;;;11.13;83.59
9746;BME280;4912;50.836;12.958;2023-02-21T07:33:56;97853.28;;;11.08;84.12
9746;BME280;4912;50.836;12.958;2023-02-21T07:36:26;97859.22;;;11.16;84.27
9746;BME280;4912;50.836;12.958;2023-02-21T07:38:57;97864.13;;;11.21;83.91
9746;BME280;4912;50.836;12.958;2023-02-21T07:41:30;97856.78;;;11.18;83.88
9746;BME280;4912;50.836;12.958;2023-02-21T07:44:00;97866.47;;;11.14;84.36
9746;BME280;4912;50.836;12.958;2023-02-21T07:46:31;97867.53;;;11.16;84.33
9746;BME280;4912;50.836;12.958;2023-02-21T07:49:01;97866.06;;;11.06;84.88
9746;BME280;4912;50.836;12.958;2023-02-21T07:51:32;97865.28;;;11.05;85.00
9746;BME280;4912;50.836;12.958;2023-02-21T07:54:03;97870.66;;;11.09;85.28
9746;BME280;4912;50.836;12.958;2023-02-21T07:56:41;97869.59;;;11.06;85.32
9746;BME280;4912;50.836;12.958;2023-02-21T07:59:13;97866.59;;;10.95;85.95
9746;BME280;4912;50.836;12.958;2023-02-21T08:01:43;97881.66;;;10.94;87.00
9746;BME280;4912;50.836;12.958;2023-02-21T08:04:14;97879.16;;;10.96;87.21
9746;BME280;4912;50.836;12.958;2023-02-21T08:06:47;97884.38;;;11.03;87.46
9746;BME280;4912;50.836;12.958;2023-02-21T08:09:17;97886.50;;;11.08;87.17
9746;BME280;4912;50.836;12.958;2023-02-21T08:11:51;97890.22;;;11.05;87.76
9746;BME280;4912;50.836;12.958;2023-02-21T08:14:21;97889.00;;;11.06;88.06
9746;BME280;4912;50.836;12.958;2023-02-21T08:16:52;97888.50;;;11.08;88.37
9746;BME280;4912;50.836;12.958;2023-02-21T08:19:22;97889.91;;;11.03;88.50
9746;BME280;4912;50.836;12.958;2023-02-21T08:21:53;97895.75;;;11.05;89.15
9746;BME280;4912;50.836;12.958;2023-02-21T08:24:23;97890.50;;;11.07;89.34
9746;BME280;4912;50.836;12.958;2023-02-21T08:26:56;97875.78;;;11.01;89.49
9746;BME280;4912;50.836;12.958;2023-02-21T08:29:27;97894.69;;;11.03;89.40
9746;BME280;4912;50.836;12.958;2023-02-21T08:31:57;97891.13;;;11.02;88.82
9746;BME280;4912;50.836;12.958;2023-02-21T08:34:28;97885.13;;;11.04;88.81
9746;BME280;4912;50.836;12.958;2023-02-21T08:36:58;97892.66;;;11.13;88.33
9746;BME280;4912;50.836;12.958;2023-02-21T08:39:43;97889.00;;;11.06;88.49
9746;BME280;4912;50.836;12.958;2023-02-21T08:42:17;97884.03;;;11.11;88.24
9746;BME280;4912;50.836;12.958;2023-02-21T08:44:47;97888.00;;;11.19;87.63
9746;BME280;4912;50.836;12.958;2023-02-21T08:47:18;97886.47;;;11.18;87.35
9746;BME280;4912;50.836;12.958;2023-02-21T08:49:48;97880.81;;;11.12;87.30
9746;BME280;4912;50.836;12.958;2023-02-21T08:52:19;97880.75;;;11.21;87.33
9746;BME280;4912;50.836;12.958;2023-02-21T08:54:49;97876.22;;;11.33;86.07
9746;BME280;4912;50.836;12.958;2023-02-21T08:57:22;97889.84;;;11.45;85.73
9746;BME280;4912;50.836;12.958;2023-02-21T08:59:53;97890.13;;;11.24;85.43
9746;BME280;4912;50.836;12.958;2023-02-21T09:02:24;97880.81;;;11.36;85.56
9746;BME280;4912;50.836;12.958;2023-02-21T09:04:56;97885.75;;;11.32;84.93
9746;BME280;4912;50.836;12.958;2023-02-21T09:07:27;97887.34;;;11.24;85.77
9746;BME280;4912;50.836;12.958;2023-02-21T09:10:00;97875.63;;;11.29;85.01
9746;BME280;4912;50.836;12.958;2023-02-21T09:12:33;97879.94;;;11.30;84.83
9746;BME280;4912;50.836;12.958;2023-02-21T09:15:04;97870.84;;;11.29;84.81
9746;BME280;4912;50.836;12.958;2023-02-21T09:17:35;97874.22;;;11.33;84.86
9746;BME280;4912;50.836;12.958;2023-02-21T09:20:08;97878.88;;;11.51;83.74
9746;BME280;4912;50.836;12.958;2023-02-21T09:22:41;97877.38;;;11.65;82.99
9746;BME280;4912;50.836;12.958;2023-02-21T09:25:15;97872.78;;;11.62;82.66
9746;BME280;4912;50.836;12.958;2023-02-21T09:27:49;97877.03;;;11.72;81.95
9746;BME280;4912;50.836;12.958;2023-02-21T09:30:23;97879.19;;;11.77;81.30
9746;BME280;4912;50.836;12.958;2023-02-21T09:32:56;97868.84;;;11.77;81.39
9746;BME280;4912;50.836;12.958;2023-02-21T09:35:26;97868.31;;;11.88;80.75
9746;BME280;4912;50.836;12.958;2023-02-21T09:37:58;97871.44;;;11.81;80.11
9746;BME280;4912;50.836;12.958;2023-02-21T09:40:35;97862.72;;;11.73;80.66
9746;BME280;4912;50.836;12.958;2023-02-21T09:43:18;97866.75;;;11.87;79.93
9746;BME280;4912;50.836;12.958;2023-02-21T09:45:51;97855.41;;;12.00;78.79
9746;BME280;4912;50.836;12.958;2023-02-21T09:48:25;97856.78;;;12.19;77.94
9746;BME280;4912;50.836;12.958;2023-02-21T09:50:58;97860.50;;;12.16;76.92
9746;BME280;4912;50.836;12.958;2023-02-21T09:53:32;97857.72;;;12.30;76.80
9746;BME280;4912;50.836;12.958;2023-02-21T09:56:07;97869.50;;;12.40;76.09
9746;BME280;4912;50.836;12.958;2023-02-21T09:58:44;97863.84;;;12.35;75.16
9746;BME280;4912;50.836;12.958;2023-02-21T10:01:22;97860.69;;;12.42;74.89
9746;BME280;4912;50.836;12.958;2023-02-21T10:04:06;97854.28;;;12.50;74.77
9746;BME280;4912;50.836;12.958;2023-02-21T10:06:49;97860.13;;;12.52;73.92
9746;BME280;4912;50.836;12.958;2023-02-21T10:09:26;97865.28;;;12.45;73.45
9746;BME280;4912;50.836;12.958;2023-02-21T10:12:12;97864.78;;;12.31;73.91
9746;BME280;4912;50.836;12.958;2023-02-21T10:15:20;97874.66;;;12.47;74.32
9746;BME280;4912;50.836;12.958;2023-02-21T10:18:02;97870.25;;;12.55;73.29
9746;BME280;4912;50.836;12.958;2023-02-21T10:20:38;97877.91;;;12.60;73.14
9746;BME280;4912;50.836;12.958;2023-02-21T10:23:16;97886.50;;;12.62;72.36
9746;BME280;4912;50.836;12.958;2023-02-21T10:25:48;97883.16;;;12.73;72.66
9746;BME280;4912;50.836;12.958;2023-02-21T10:28:23;97882.00;;;12.80;72.06
9746;BME280;4912;50.836;12.958;2023-02-21T10:30:59;97888.31;;;12.80;71.76
9746;BME280;4912;50.836;12.958;2023-02-21T10:33:35;97890.91;;;12.84;71.77
9746;BME280;4912;50.836;12.958;2023-02-21T10:36:16;97891.88;;;12.81;71.75
9746;BME280;4912;50.836;12.958;2023-02-21T10:38:54;97897.13;;;12.93;71.29
9746;BME280;4912;50.836;12.958;2023-02-21T10:41:28;97900.13;;;13.10;70.29
9746;BME280;4912;50.836;12.958;2023-02-21T10:44:04;97894.28;;;13.08;70.59
9746;BME280;4912;50.836;12.958;2023-02-21T10:46:43;97898.72;;;13.00;70.76
9746;BME280;4912;50.836;12.958;2023-02-21T10:49:20;97890.09;;;12.98;70.14
9746;BME280;4912;50.836;12.958;2023-02-21T10:52:08;97885.72;;;12.91;70.37
9746;BME280;4912;50.836;12.958;2023-02-21T10:54:39;97887.31;;;12.98;70.76
9746;BME280;4912;50.836;12.958;2023-02-21T10:57:14;97879.00;;;12.98;70.60
9746;BME280;4912;50.836;12.958;2023-02-21T10:59:47;97883.31;;;12.99;70.54
9746;BME280;4912;50.836;12.958;2023-02-21T11:02:31;97891.63;;;12.99;70.27
9746;BME280;4912;50.836;12.958;2023-02-21T11:05:09;97892.78;;;13.07;70.33
9746;BME280;4912;50.836;12.958;2023-02-21T11:07:56;97874.28;;;13.04;70.03
9746;BME280;4912;50.836;12.958;2023-02-21T11:10:33;97879.84;;;13.04;70.22
9746;BME280;4912;50.836;12.958;2023-02-21T11:13:13;97890.22;;;12.89;70.04
9746;BME280;4912;50.836;12.958;2023-02-21T11:15:45;97878.63;;;12.90;70.19
9746;BME280;4912;50.836;12.958;2023-02-21T11:18:23;97889.94;;;12.87;69.75
9746;BME280;4912;50.836;12.958;2023-02-21T11:20:54;97886.56;;;12.97;70.46
9746;BME280;4912;50.836;12.958;2023-02-21T11:23:44;97871.91;;;12.97;68.86
9746;BME280;4912;50.836;12.958;2023-02-21T11:26:24;97860.63;;;13.00;68.98
9746;BME280;4912;50.836;12.958;2023-02-21T11:29:06;97865.09;;;12.98;68.97
9746;BME280;4912;50.836;12.958;2023-02-21T11:31:39;97871.50;;;13.04;68.87
9746;BME280;4912;50.836;12.958;2023-02-21T11:34:14;97874.28;;;13.04;68.86
9746;BME280;4912;50.836;12.958;2023-02-21T11:36:47;97867.50;;;13.05;69.22
9746;BME280;4912;50.836;12.958;2023-02-21T11:39:22;97870.75;;;13.03;69.11
9746;BME280;4912;50.836;12.958;2023-02-21T11:41:57;97856.84;;;13.03;69.28
9746;BME280;4912;50.836;12.958;2023-02-21T11:44:31;97859.84;;;13.00;69.39
9746;BME280;4912;50.836;12.958;2023-02-21T11:47:11;97853.22;;;12.97;70.06
9746;BME280;4912;50.836;12.958;2023-02-21T11:49:53;97857.94;;;12.91;70.05
9746;BME280;4912;50.836;12.958;2023-02-21T11:52:33;97851.34;;;12.89;70.07
9746;BME280;4912;50.836;12.958;2023-02-21T11:55:13;97862.56;;;12.80;70.61
9746;BME280;4912;50.836;12.958;2023-02-21T11:57:54;97861.44;;;12.71;70.98
9746;BME280;4912;50.836;12.958;2023-02-21T12:00:36;97861.63;;;12.68;71.10
9746;BME280;4912;50.836;12.958;2023-02-21T12:06:24;97861.81;;;12.64;71.46
9746;BME280;4912;50.836;12.958;2023-02-21T12:09:01;97857.81;;;12.65;71.23
9746;BME280;4912;50.836;12.958;2023-02-21T12:11:45;97847.47;;;12.66;71.71
9746;BME280;4912;50.836;12.958;2023-02-21T12:17:51;97846.72;;;12.65;71.83
9746;BME280;4912;50.836;12.958;2023-02-21T12:20:45;97849.78;;;12.53;72.17
9746;BME280;4912;50.836;12.958;2023-02-21T12:23:32;97845.94;;;12.50;72.48
9746;BME280;4912;50.836;12.958;2023-02-21T12:26:21;97841.94;;;12.51;72.32
9746;BME280;4912;50.836;12.958;2023-02-21T12:29:08;97850.38;;;12.42;72.98
9746;BME280;4912;50.836;12.958;2023-02-21T12:32:04;97839.34;;;12.48;73.15
9746;BME280;4912;50.836;12.958;2023-02-21T12:35:00;97843.34;;;12.61;72.83
9746;BME280;4912;50.836;12.958;2023-02-21T12:37:44;97842.00;;;12.57;72.40
9746;BME280;4912;50.836;12.958;2023-02-21T12:40:27;97836.56;;;12.62;73.06
9746;BME280;4912;50.836;12.958;2023-02-21T12:43:12;97822.41;;;12.60;72.82
9746;BME280;4912;50.836;12.958;2023-02-21T12:45:58;97824.88;;;12.58;72.97
9746;BME280;4912;50.836;12.958;2023-02-21T12:48:37;97823.91;;;12.61;73.36
9746;BME280;4912;50.836;12.958;2023-02-21T12:51:15;97822.75;;;12.68;73.10
9746;BME280;4912;50.836;12.958;2023-02-21T12:53:50;97809.47;;;12.72;73.20
9746;BME280;4912;50.836;12.958;2023-02-21T12:56:31;97808.69;;;12.71;73.27
9746;BME280;4912;50.836;12.958;2023-02-21T12:59:07;97809.16;;;12.70;73.53
9746;BME280;4912;50.836;12.958;2023-02-21T13:01:46;97807.06;;;12.65;73.88
9746;BME280;4912;50.836;12.958;2023-02-21T13:04:26;97799.50;;;12.65;74.26
9746;BME280;4912;50.836;12.958;2023-02-21T13:07:05;97800.47;;;12.62;74.45
9746;BME280;4912;50.836;12.958;2023-02-21T13:09:49;97790.44;;;12.50;74.86
9746;BME280;4912;50.836;12.958;2023-02-21T13:12:30;97790.03;;;12.57;75.08
9746;BME280;4912;50.836;12.958;2023-02-21T13:15:15;97791.97;;;12.51;75.18
9746;BME280;4912;50.836;12.958;2023-02-21T13:17:54;97794.06;;;12.56;75.50
9746;BME280;4912;50.836;12.958;2023-02-21T13:20:31;97795.44;;;12.46;75.79
9746;BME280;4912;50.836;12.958;2023-02-21T13:26:41;97801.06;;;12.37;76.92
9746;BME280;4912;50.836;12.958;2023-02-21T13:29:23;97786.53;;;12.42;77.08
9746;BME280;4912;50.836;12.958;2023-02-21T13:31:59;97784.03;;;12.44;77.13
9746;BME280;4912;50.836;12.958;2023-02-21T13:34:36;97777.03;;;12.49;77.15
9746;BME280;4912;50.836;12.958;2023-02-21T13:37:14;97786.03;;;12.58;76.53
9746;BME280;4912;50.836;12.958;2023-02-21T13:39:50;97788.19;;;12.69;76.71
9746;BME280;4912;50.836;12.958;2023-02-21T13:42:27;97785.59;;;12.80;75.95
9746;BME280;4912;50.836;12.958;2023-02-21T13:45:14;97782.03;;;12.80;75.45
9746;BME280;4912;50.836;12.958;2023-02-21T13:48:17;97770.84;;;12.74;75.05
9746;BME280;4912;50.836;12.958;2023-02-21T13:50:49;97767.13;;;12.77;75.00
9746;BME280;4912;50.836;12.958;2023-02-21T13:53:23;97775.88;;;12.90;74.32
9746;BME280;4912;50.836;12.958;2023-02-21T13:59:30;97780.03;;;13.15;73.21
9746;BME280;4912;50.836;12.958;2023-02-21T14:02:21;97769.38;;;13.13;73.04
9746;BME280;4912;50.836;12.958;2023-02-21T14:05:02;97779.38;;;13.05;72.90
9746;BME280;4912;50.836;12.958;2023-02-21T14:07:47;97772.69;;;12.97;73.01
9746;BME280;4912;50.836;12.958;2023-02-21T14:10:33;97772.00;;;13.02;73.11
9746;BME280;4912;50.836;12.958;2023-02-21T14:13:22;97777.28;;;13.00;73.26
9746;BME280;4912;50.836;12.958;2023-02-21T14:15:58;97778.81;;;13.01;73.01
9746;BME280;4912;50.836;12.958;2023-02-21T14:18:43;97780.53;;;12.99;73.01
9746;BME280;4912;50.836;12.958;2023-02-21T14:21:28;97775.69;;;12.94;73.11
9746;BME280;4912;50.836;12.958;2023-02-21T14:24:04;97776.78;;;13.02;73.08